createdAt,value
2018-09-03T10:19:49.568Z,22.43
2018-09-03T10:20:49.614Z,22.27
2018-09-03T10:21:49.527Z,22.42
2018-09-03T10:22:49.511Z,22.33
2018-09-03T10:23:49.495Z,22.15
2018-09-03T10:24:49.489Z,22.02
2018-09-03T10:25:49.481Z,22.22
2018-09-03T10:26:49.453Z,22.22
2018-09-03T10:27:49.441Z,22.21
2018-09-03T10:28:49.485Z,22.24
2018-09-03T10:29:49.422Z,22.17
2018-09-03T10:30:49.412Z,22.05
2018-09-03T10:31:49.423Z,22.12
2018-09-03T10:32:49.396Z,22.17
2018-09-03T10:33:49.363Z,22.35
2018-09-03T10:34:49.371Z,22.33
2018-09-03T10:35:49.353Z,22.33
2018-09-03T10:36:49.321Z,22.30
2018-09-03T10:37:49.308Z,22.17
2018-09-03T10:38:49.315Z,22.03
2018-09-03T10:39:49.299Z,22.17
2018-09-03T10:40:49.304Z,21.99
2018-09-03T10:41:49.264Z,21.71
2018-09-03T10:42:49.246Z,21.74
2018-09-03T10:43:49.252Z,21.68
2018-09-03T10:44:49.220Z,21.74
2018-09-03T10:45:49.238Z,21.69
2018-09-03T10:46:49.219Z,21.64
2018-09-03T10:47:49.183Z,21.68
2018-09-03T10:48:49.172Z,21.32
2018-09-03T10:49:49.190Z,21.54
2018-09-03T10:50:49.168Z,21.72
2018-09-03T10:51:49.157Z,21.91
2018-09-03T10:52:49.120Z,22.03
2018-09-03T10:53:49.129Z,22.18
2018-09-03T10:54:49.099Z,22.45
2018-09-03T10:55:49.123Z,22.47
2018-09-03T10:56:49.640Z,22.46
2018-09-03T10:57:49.058Z,22.40
2018-09-03T10:58:49.044Z,22.37
2018-09-03T10:59:49.052Z,21.83
2018-09-03T11:00:49.030Z,21.54
2018-09-03T11:01:49.021Z,21.56
2018-09-03T11:02:48.994Z,21.46
2018-09-03T11:03:48.982Z,21.54
2018-09-03T11:04:48.979Z,21.71
2018-09-03T11:05:49.020Z,21.74
2018-09-03T11:06:48.970Z,21.84
2018-09-03T11:07:48.931Z,21.94
2018-09-03T11:08:48.951Z,21.90
2018-09-03T11:09:48.904Z,21.99
2018-09-03T11:10:58.757Z,22.05
2018-09-03T11:11:48.880Z,22.09
2018-09-03T11:12:48.885Z,22.39
2018-09-03T11:13:48.883Z,22.17
2018-09-03T11:14:48.868Z,22.27
2018-09-03T11:15:48.842Z,22.31
2018-09-03T11:16:48.882Z,22.31
2018-09-03T11:17:48.819Z,22.43
2018-09-03T11:18:48.792Z,22.45
2018-09-03T11:19:48.788Z,22.37
2018-09-03T11:20:48.774Z,22.14
2018-09-03T11:21:48.779Z,22.22
2018-09-03T11:22:48.760Z,22.24
2018-09-03T11:23:48.746Z,22.49
2018-09-03T11:24:48.735Z,22.25
2018-09-03T11:25:48.705Z,22.30
2018-09-03T11:26:48.710Z,22.52
2018-09-03T11:27:48.708Z,22.73
2018-09-03T11:28:48.743Z,22.82
2018-09-03T11:29:48.661Z,23.01
2018-09-03T11:30:48.644Z,23.09
2018-09-03T11:31:48.637Z,22.98
2018-09-03T11:32:48.632Z,23.27
2018-09-03T11:33:48.612Z,23.48
2018-09-03T11:34:48.626Z,23.53
2018-09-03T11:35:48.589Z,23.40
2018-09-03T11:36:48.574Z,23.72
2018-09-03T11:37:48.598Z,23.87
2018-09-03T11:38:48.564Z,23.73
2018-09-03T11:39:48.546Z,23.38
2018-09-03T11:40:48.693Z,23.53
2018-09-03T11:41:48.519Z,23.55
2018-09-03T11:42:48.520Z,24.08
2018-09-03T11:43:48.504Z,24.68
2018-09-03T11:44:48.510Z,25.09
2018-09-03T11:45:48.483Z,24.50
2018-09-03T11:46:48.461Z,23.87
2018-09-03T11:47:48.450Z,23.91
2018-09-03T11:48:48.456Z,24.21
2018-09-03T11:49:48.427Z,24.15
2018-09-03T11:50:48.413Z,23.95
2018-09-03T11:51:48.404Z,24.05
2018-09-03T11:52:48.396Z,24.08
2018-09-03T11:53:48.394Z,23.75
2018-09-03T11:54:48.373Z,23.22
2018-09-03T11:55:48.360Z,23.32
2018-09-03T11:56:48.352Z,23.38
2018-09-03T11:57:48.337Z,23.58
2018-09-03T11:58:48.343Z,23.32
2018-09-03T11:59:48.327Z,23.38
2018-09-03T12:00:48.305Z,23.22
2018-09-03T12:01:48.295Z,23.20
2018-09-03T12:02:48.283Z,23.38
2018-09-03T12:03:48.282Z,23.53
2018-09-03T12:04:48.284Z,23.31
2018-09-03T12:05:48.249Z,23.17
2018-09-03T12:06:48.277Z,23.35
2018-09-03T12:07:48.225Z,23.35
2018-09-03T12:08:48.215Z,23.61
2018-09-03T12:09:48.208Z,23.63
2018-09-03T12:10:48.199Z,23.80
2018-09-03T12:11:48.184Z,24.03
2018-09-03T12:12:48.170Z,23.85
2018-09-03T12:13:48.159Z,23.93
2018-09-03T12:14:48.148Z,23.79
2018-09-03T12:15:48.750Z,23.95
2018-09-03T12:16:48.164Z,23.98
2018-09-03T12:17:48.116Z,24.16
2018-09-03T12:18:48.106Z,24.42
2018-09-03T12:19:48.100Z,24.58
2018-09-03T12:20:48.113Z,24.76
2018-09-03T12:21:48.075Z,24.62
2018-09-03T12:22:48.062Z,24.85
2018-09-03T12:23:48.084Z,24.61
2018-09-03T12:24:48.038Z,24.24
2018-09-03T12:25:48.038Z,24.05
2018-09-03T12:26:48.014Z,24.10
2018-09-03T12:27:48.005Z,23.91
2018-09-03T12:28:47.998Z,24.02
2018-09-03T12:29:47.984Z,24.13
2018-09-03T12:30:47.994Z,24.18
2018-09-03T12:31:47.962Z,24.25
2018-09-03T12:32:47.950Z,24.27
2018-09-03T12:33:47.949Z,24.40
2018-09-03T12:34:47.928Z,24.46
2018-09-03T12:35:47.920Z,24.50
2018-09-03T12:36:47.934Z,24.65
2018-09-03T12:37:47.904Z,24.47
2018-09-03T12:38:47.887Z,24.31
2018-09-03T12:39:47.873Z,24.21
2018-09-03T12:40:47.864Z,23.93
2018-09-03T12:41:47.856Z,23.38
2018-09-03T12:42:47.927Z,23.32
2018-09-03T12:43:47.829Z,23.31
2018-09-03T12:44:47.826Z,23.33
2018-09-03T12:45:47.807Z,23.27
2018-09-03T12:46:47.798Z,23.33
2018-09-03T12:47:47.800Z,23.25
2018-09-03T12:48:47.774Z,23.36
2018-09-03T12:49:47.764Z,23.33
2018-09-03T12:50:47.753Z,23.33
2018-09-03T12:51:47.745Z,23.36
2018-09-03T12:52:47.751Z,23.51
2018-09-03T12:53:47.723Z,23.47
2018-09-03T12:54:47.713Z,23.65
2018-09-03T12:55:47.696Z,23.54
2018-09-03T12:56:47.710Z,23.68
2018-09-03T12:57:47.682Z,23.35
2018-09-03T12:58:47.704Z,23.28
2018-09-03T12:59:47.652Z,23.10
2018-09-03T13:00:47.649Z,23.02
2018-09-03T13:01:47.631Z,23.02
2018-09-03T13:02:47.646Z,22.95
2018-09-03T13:03:47.606Z,22.80
2018-09-03T13:04:47.592Z,22.91
2018-09-03T13:05:47.589Z,22.85
2018-09-03T13:06:47.572Z,22.67
2018-09-03T13:07:47.574Z,22.58
2018-09-03T13:08:47.550Z,22.52
2018-09-03T13:09:47.537Z,22.54
2018-09-03T13:10:47.523Z,22.49
2018-09-03T13:11:47.519Z,22.54
2018-09-03T13:12:47.545Z,22.39
2018-09-03T13:13:47.490Z,22.30
2018-09-03T13:14:47.480Z,22.31
2018-09-03T13:15:47.469Z,22.55
2018-09-03T13:16:47.456Z,22.46
2018-09-03T13:17:47.459Z,22.42
2018-09-03T13:18:47.439Z,22.28
2018-09-03T13:19:47.430Z,22.30
2018-09-03T13:20:47.407Z,22.22
2018-09-03T13:21:47.399Z,22.06
2018-09-03T13:22:47.399Z,22.05
2018-09-03T13:23:47.371Z,22.07
2018-09-03T13:24:47.420Z,22.12
2018-09-03T13:25:47.349Z,22.03
2018-09-03T13:26:47.334Z,22.07
2018-09-03T13:27:47.331Z,22.00
2018-09-03T13:28:47.311Z,22.22
2018-09-03T13:29:47.300Z,22.07
2018-09-03T13:30:47.317Z,22.28
2018-09-03T13:31:47.271Z,22.36
2018-09-03T13:32:47.276Z,22.58
2018-09-03T13:33:47.250Z,22.73
2018-09-03T13:34:47.237Z,22.82
2018-09-03T13:35:47.223Z,22.82
2018-09-03T13:36:47.213Z,22.86
2018-09-03T13:37:47.211Z,22.75
2018-09-03T13:38:47.190Z,22.73
2018-09-03T13:39:47.180Z,22.58
2018-09-03T13:40:47.165Z,22.57
2018-09-03T13:41:47.150Z,22.42
2018-09-03T13:42:47.149Z,22.42
2018-09-03T13:43:47.125Z,22.51
2018-09-03T13:44:47.113Z,22.42
2018-09-03T13:45:47.102Z,22.40
2018-09-03T13:46:47.089Z,22.40
2018-09-03T13:47:47.084Z,22.42
2018-09-03T13:48:47.062Z,22.27
2018-09-03T13:49:47.051Z,22.27
2018-09-03T13:50:47.803Z,22.12
2018-09-03T13:51:47.023Z,22.30
2018-09-03T13:52:47.027Z,22.15
2018-09-03T13:53:47.000Z,22.00
2018-09-03T13:54:47.005Z,22.00
2018-09-03T13:55:46.974Z,22.03
2018-09-03T13:56:47.008Z,22.14
2018-09-03T13:57:46.966Z,21.99
2018-09-03T13:58:46.936Z,22.02
2018-09-03T13:59:46.924Z,22.02
2018-09-03T14:00:46.910Z,21.98
2018-09-03T14:01:46.898Z,22.02
2018-09-03T14:02:46.884Z,22.00
2018-09-03T14:03:46.886Z,22.07
2018-09-03T14:04:46.866Z,22.21
2018-09-03T14:05:46.849Z,22.27
2018-09-03T14:06:46.844Z,22.46
2018-09-03T14:07:46.855Z,22.33
2018-09-03T14:08:46.822Z,22.43
2018-09-03T14:09:46.842Z,22.37
2018-09-03T14:10:46.790Z,22.31
2018-09-03T14:11:46.783Z,22.25
2018-09-03T14:12:46.761Z,22.30
